Time;durP1;ratioP1;P1;durP2;ratioP2;P2;SDS_P1;SDS_P2;PMS_P1;PMS_P2;Temp;Humidity;BMP_temperature;BMP_pressure;BME280_temperature;BME280_humidity;BME280_pressure;Samples;Min_cycle;Max_cycle;Signal;HPM_P1;HPM_P2
2023/09/18 00:00:52;;;;;;;14.27;11.10;;;;;;;17.82;100.00;95125.47;5151169;27;20211;-44
2023/09/18 00:03:20;;;;;;;13.97;10.30;;;;;;;17.84;100.00;95132.09;5150746;27;20199;-44
2023/09/18 00:05:48;;;;;;;13.80;10.73;;;;;;;17.85;100.00;95125.94;5150456;27;20200;-44
2023/09/18 00:08:15;;;;;;;11.10;10.00;;;;;;;17.80;100.00;95120.47;5151374;27;20214;-45
2023/09/18 00:10:43;;;;;;;13.57;10.33;;;;;;;17.76;100.00;95119.19;5151327;27;20203;-44
2023/09/18 00:13:10;;;;;;;11.60;10.40;;;;;;;17.71;100.00;95119.69;5150934;27;20195;-43
2023/09/18 00:15:38;;;;;;;12.43;10.43;;;;;;;17.63;100.00;95114.56;5151065;27;20240;-45
2023/09/18 00:18:05;;;;;;;14.47;11.57;;;;;;;17.65;100.00;95109.19;5150575;27;20191;-43
2023/09/18 00:20:32;;;;;;;15.20;10.57;;;;;;;17.61;100.00;95119.06;5150312;27;20330;-43
2023/09/18 00:23:00;;;;;;;14.83;10.33;;;;;;;17.51;100.00;95108.16;5150703;27;20187;-42
2023/09/18 00:25:27;;;;;;;13.00;10.57;;;;;;;17.53;100.00;95119.16;5151005;27;20219;-43
2023/09/18 00:27:53;;;;;;;14.07;10.67;;;;;;;17.45;100.00;95117.41;5151176;27;20524;-43
2023/09/18 00:30:20;;;;;;;16.90;10.77;;;;;;;17.50;100.00;95115.09;5150817;27;20207;-44
2023/09/18 00:32:49;;;;;;;13.80;10.53;;;;;;;17.42;100.00;95115.16;5150790;27;20192;-44
2023/09/18 00:35:16;;;;;;;11.37;9.97;;;;;;;17.40;100.00;95118.88;5150280;27;20199;-45
2023/09/18 00:37:44;;;;;;;11.90;10.43;;;;;;;17.15;100.00;95079.41;5150941;27;20211;-43
2023/09/18 00:40:13;;;;;;;17.53;11.77;;;;;;;17.35;100.00;95115.97;5150319;27;20207;-42
2023/09/18 00:42:40;;;;;;;12.03;10.40;;;;;;;17.38;100.00;95129.38;5150703;27;20664;-45
2023/09/18 00:45:08;;;;;;;12.00;9.80;;;;;;;17.35;100.00;95121.97;5150327;27;20210;-44
2023/09/18 00:47:36;;;;;;;12.43;11.13;;;;;;;16.33;100.00;94957.50;5151033;27;20199;-49
2023/09/18 00:50:05;;;;;;;13.27;10.67;;;;;;;17.34;100.00;95124.72;5153880;27;20183;-44
2023/09/18 00:52:33;;;;;;;15.40;11.03;;;;;;;17.33;100.00;95123.13;5155265;27;20223;-44
2023/09/18 00:55:01;;;;;;;15.03;10.87;;;;;;;17.31;100.00;95123.25;5155315;27;20191;-45
2023/09/18 00:57:29;;;;;;;16.37;11.50;;;;;;;17.05;100.00;95087.34;5155499;27;20638;-43
2023/09/18 00:59:56;;;;;;;15.47;11.93;;;;;;;17.30;100.00;95129.41;5154716;27;20629;-44
2023/09/18 01:02:24;;;;;;;15.73;11.23;;;;;;;17.22;100.00;95119.91;5154544;27;20799;-45
2023/09/18 01:04:51;;;;;;;12.03;10.70;;;;;;;17.29;100.00;95127.81;5154626;27;20196;-44
2023/09/18 01:07:18;;;;;;;14.63;11.90;;;;;;;17.28;100.00;95139.13;5155954;27;20203;-44
2023/09/18 01:09:45;;;;;;;13.73;11.53;;;;;;;17.25;100.00;95140.25;5156553;27;20262;-44
2023/09/18 01:12:20;;;;;;;15.33;10.93;;;;;;;17.28;100.00;95139.94;5155822;27;20180;-44
2023/09/18 01:14:58;;;;;;;12.63;11.03;;;;;;;17.27;100.00;95137.50;5155397;27;20243;-45
2023/09/18 01:17:25;;;;;;;12.80;11.27;;;;;;;17.23;100.00;95129.28;5154420;27;20183;-45
2023/09/18 01:19:52;;;;;;;14.80;11.13;;;;;;;17.26;100.00;95141.88;5157203;27;20203;-44
2023/09/18 01:22:21;;;;;;;13.80;11.73;;;;;;;17.26;100.00;95134.09;5153848;27;20207;-45
2023/09/18 01:24:49;;;;;;;13.10;11.77;;;;;;;17.24;100.00;95130.91;5155002;27;20192;-45
2023/09/18 01:27:18;;;;;;;17.13;10.97;;;;;;;17.19;100.00;95128.03;5154798;27;20188;-44
2023/09/18 01:29:46;;;;;;;12.03;10.63;;;;;;;17.20;100.00;95131.41;5154549;27;20215;-44
2023/09/18 01:32:13;;;;;;;16.70;12.03;;;;;;;17.21;100.00;95133.81;5153890;27;20203;-44
2023/09/18 01:34:43;;;;;;;15.43;12.00;;;;;;;17.20;100.00;95132.22;5154712;27;20342;-44
2023/09/18 01:37:11;;;;;;;13.03;11.73;;;;;;;17.19;100.00;95128.03;5153818;27;20190;-44
2023/09/18 01:39:40;;;;;;;14.53;11.43;;;;;;;17.18;100.00;95126.38;5154277;27;20597;-44
2023/09/18 01:42:09;;;;;;;15.13;11.60;;;;;;;17.18;100.00;95130.75;5153507;27;20227;-43
2023/09/18 01:44:38;;;;;;;15.00;11.67;;;;;;;17.15;100.00;95129.31;5153642;27;20274;-44
2023/09/18 01:47:07;;;;;;;13.43;11.93;;;;;;;17.15;100.00;95131.09;5153265;27;20230;-48
2023/09/18 01:49:35;;;;;;;12.30;11.10;;;;;;;17.14;100.00;95127.72;5153719;27;20195;-45
2023/09/18 01:52:02;;;;;;;13.70;12.30;;;;;;;17.14;100.00;95130.31;5153089;27;20187;-43
2023/09/18 01:54:29;;;;;;;13.57;11.97;;;;;;;17.13;100.00;95128.66;5153518;27;20367;-44
2023/09/18 01:56:56;;;;;;;13.67;11.70;;;;;;;17.12;100.00;95129.66;5153029;27;20264;-43
2023/09/18 01:59:25;;;;;;;13.00;11.60;;;;;;;17.11;100.00;95130.63;5152673;27;20198;-43
2023/09/18 02:01:53;;;;;;;16.60;12.03;;;;;;;17.10;100.00;95130.78;5153119;27;20601;-44
2023/09/18 02:04:20;;;;;;;13.40;10.80;;;;;;;17.10;100.00;95131.59;5153116;27;20637;-43
2023/09/18 02:06:48;;;;;;;15.27;12.17;;;;;;;17.11;100.00;95137.59;5152955;27;20237;-44
2023/09/18 02:09:15;;;;;;;14.20;12.33;;;;;;;17.10;100.00;95135.94;5153157;27;20180;-43
2023/09/18 02:11:42;;;;;;;12.00;10.80;;;;;;;16.94;100.00;95111.78;5153155;27;20188;-43
2023/09/18 02:14:10;;;;;;;15.67;12.70;;;;;;;17.07;100.00;95136.31;5152392;27;20187;-44
2023/09/18 02:16:42;;;;;;;14.77;12.43;;;;;;;17.07;100.00;95141.47;5152817;27;20539;-44
2023/09/18 02:19:09;;;;;;;14.73;11.80;;;;;;;17.07;100.00;95141.47;5152614;27;20283;-45
2023/09/18 02:21:37;;;;;;;13.40;11.27;;;;;;;17.05;100.00;95139.03;5152542;27;20216;-43
2023/09/18 02:24:04;;;;;;;14.13;12.60;;;;;;;17.03;100.00;95134.03;5152470;27;20597;-45
2023/09/18 02:26:31;;;;;;;15.63;12.93;;;;;;;17.01;100.00;95143.75;5152526;27;20679;-44
2023/09/18 02:29:00;;;;;;;15.57;12.37;;;;;;;17.02;100.00;95136.81;5153403;27;20196;-43
2023/09/18 02:31:27;;;;;;;17.13;12.17;;;;;;;15.99;100.00;94974.81;5153041;27;20180;-43
2023/09/18 02:33:55;;;;;;;18.20;13.07;;;;;;;17.02;100.00;95144.56;5152345;27;20187;-43
2023/09/18 02:36:21;;;;;;;14.57;13.10;;;;;;;16.95;100.00;95134.06;5151736;27;20198;-44
2023/09/18 02:38:48;;;;;;;16.03;12.33;;;;;;;17.00;100.00;95134.38;5152213;27;20198;-42
2023/09/18 02:41:15;;;;;;;13.87;12.23;;;;;;;16.96;100.00;95119.38;5152474;27;20212;-43
2023/09/18 02:43:42;;;;;;;18.33;13.97;;;;;;;17.01;100.00;95127.41;5152317;27;20549;-44
2023/09/18 02:46:09;;;;;;;15.83;13.13;;;;;;;17.00;100.00;95134.38;5152531;27;20217;-43
2023/09/18 02:48:36;;;;;;;16.30;12.60;;;;;;;16.91;100.00;95119.88;5152528;27;20180;-42
2023/09/18 02:51:04;;;;;;;21.37;13.27;;;;;;;17.00;100.00;95141.31;5152218;27;20187;-44
2023/09/18 02:53:31;;;;;;;19.37;13.00;;;;;;;16.97;100.00;95139.88;5152127;27;20243;-43
2023/09/18 02:55:59;;;;;;;14.93;13.30;;;;;;;16.96;100.00;95143.41;5151829;27;20268;-42
2023/09/18 02:58:29;;;;;;;16.07;13.30;;;;;;;16.95;100.00;95136.66;5152684;27;20208;-45
2023/09/18 03:00:56;;;;;;;13.90;12.43;;;;;;;16.99;100.00;95143.09;5151680;27;20678;-44
2023/09/18 03:03:24;;;;;;;15.47;13.57;;;;;;;16.98;100.00;95144.06;5151811;27;20683;-44
2023/09/18 03:05:50;;;;;;;16.73;12.93;;;;;;;16.96;100.00;95146.00;5151747;27;20198;-44
2023/09/18 03:08:19;;;;;;;23.23;13.73;;;;;;;16.93;100.00;95143.78;5151941;27;20191;-44
2023/09/18 03:10:46;;;;;;;17.67;14.60;;;;;;;16.95;100.00;95144.41;5150866;27;20226;-44
2023/09/18 03:13:16;;;;;;;17.33;13.50;;;;;;;16.96;100.00;95148.59;5151530;27;20597;-47
2023/09/18 03:15:46;;;;;;;15.70;13.83;;;;;;;16.95;100.00;95143.59;5151860;27;20275;-44
2023/09/18 03:18:14;;;;;;;17.87;13.87;;;;;;;16.95;100.00;95143.59;5151444;27;20266;-44
2023/09/18 03:20:41;;;;;;;16.30;13.47;;;;;;;16.94;100.00;95140.22;5151395;27;20248;-43
2023/09/18 03:23:08;;;;;;;15.47;13.80;;;;;;;16.95;100.00;95133.25;5151751;27;20206;-43
2023/09/18 03:25:37;;;;;;;19.03;16.00;;;;;;;16.96;100.00;95137.44;5151184;27;20211;-43
2023/09/18 03:28:04;;;;;;;17.17;14.23;;;;;;;16.98;100.00;95130.34;5151553;27;20180;-43
2023/09/18 03:30:31;;;;;;;19.33;15.30;;;;;;;16.99;100.00;95129.38;5151018;27;20663;-44
2023/09/18 03:32:58;;;;;;;19.03;14.73;;;;;;;16.95;100.00;95130.69;5151566;27;20223;-44
2023/09/18 03:35:25;;;;;;;16.57;14.60;;;;;;;16.95;100.00;95131.47;5150893;27;20195;-44
2023/09/18 03:37:54;;;;;;;19.33;15.27;;;;;;;16.95;100.00;95133.25;5151555;27;20598;-43
2023/09/18 03:40:21;;;;;;;17.10;14.17;;;;;;;16.93;100.00;95127.47;5151232;27;20650;-44
2023/09/18 03:42:49;;;;;;;19.23;15.03;;;;;;;16.89;100.00;95123.59;5150612;27;20698;-44
2023/09/18 03:45:18;;;;;;;17.13;15.07;;;;;;;16.89;100.00;95115.84;5151358;27;20196;-43
2023/09/18 03:47:45;;;;;;;18.57;14.70;;;;;;;16.74;100.00;95093.25;5151844;27;20270;-46
2023/09/18 03:50:13;;;;;;;17.70;14.83;;;;;;;16.91;100.00;95116.47;5151194;27;20191;-44
2023/09/18 03:52:40;;;;;;;18.57;13.87;;;;;;;16.89;100.00;95108.09;5150808;27;20191;-44
2023/09/18 03:55:08;;;;;;;18.47;15.07;;;;;;;16.92;100.00;95118.09;5151206;27;20260;-43
2023/09/18 03:57:35;;;;;;;22.20;15.67;;;;;;;16.91;100.00;95116.47;5151236;27;20298;-44
2023/09/18 04:00:04;;;;;;;17.37;15.03;;;;;;;16.91;100.00;95117.28;5151410;27;20573;-45
2023/09/18 04:02:31;;;;;;;17.40;14.70;;;;;;;16.90;100.00;95114.88;5150542;27;20221;-44
2023/09/18 04:04:58;;;;;;;22.73;15.50;;;;;;;16.86;100.00;95106.63;5150585;27;20195;-44
2023/09/18 04:07:24;;;;;;;22.13;17.17;;;;;;;16.91;100.00;95111.31;5150745;27;20191;-45
2023/09/18 04:09:51;;;;;;;18.00;15.47;;;;;;;16.92;100.00;95112.91;5151286;27;20569;-44
2023/09/18 04:12:18;;;;;;;17.97;16.00;;;;;;;16.89;100.00;95110.69;5150160;27;20198;-43
2023/09/18 04:14:45;;;;;;;17.87;16.00;;;;;;;16.91;100.00;95119.06;5151334;27;20188;-43
2023/09/18 04:17:13;;;;;;;19.90;16.03;;;;;;;16.91;100.00;95125.03;5151339;27;20247;-44
2023/09/18 04:19:40;;;;;;;19.80;16.73;;;;;;;16.94;100.00;95129.88;5150370;27;20613;-44
2023/09/18 04:22:08;;;;;;;19.07;16.57;;;;;;;16.97;100.00;95131.34;5150922;27;20204;-44
2023/09/18 04:24:34;;;;;;;18.83;16.73;;;;;;;16.96;100.00;95133.09;5136965;27;20202;-44
2023/09/18 04:27:01;;;;;;;21.10;17.07;;;;;;;17.05;100.00;95139.03;5156666;27;20221;-44
2023/09/18 04:29:28;;;;;;;20.37;17.93;;;;;;;17.15;100.00;95134.50;5157234;27;20183;-44
2023/09/18 04:31:55;;;;;;;17.97;16.10;;;;;;;17.25;100.00;95134.28;5157469;27;20187;-43
2023/09/18 04:34:23;;;;;;;19.63;16.93;;;;;;;17.25;100.00;95131.69;5157065;27;20187;-43
2023/09/18 04:36:50;;;;;;;20.33;16.47;;;;;;;17.29;100.00;95130.41;5157786;27;20183;-43
2023/09/18 04:39:17;;;;;;;18.60;16.53;;;;;;;17.39;100.00;95141.31;5157732;27;20190;-44
2023/09/18 04:41:43;;;;;;;19.40;17.27;;;;;;;17.49;100.00;95141.94;5157382;27;20202;-43
2023/09/18 04:44:12;;;;;;;18.93;16.97;;;;;;;17.57;100.00;95146.25;5157449;27;20244;-45
2023/09/18 04:46:40;;;;;;;20.33;15.93;;;;;;;17.63;100.00;95149.97;5157764;27;20270;-44
2023/09/18 04:49:07;;;;;;;18.30;16.20;;;;;;;17.64;100.00;95134.25;5157137;27;20274;-44
2023/09/18 04:51:35;;;;;;;23.63;17.47;;;;;;;17.76;100.00;95145.88;5157785;27;20187;-46
2023/09/18 04:54:02;;;;;;;21.07;17.33;;;;;;;17.82;100.00;95146.97;5157097;27;20679;-43
2023/09/18 04:56:29;;;;;;;21.13;18.57;;;;;;;17.92;100.00;95144.97;5157663;27;20187;-44
2023/09/18 04:58:57;;;;;;;21.03;18.20;;;;;;;18.04;100.00;95145.38;5157856;27;20207;-44
2023/09/18 05:01:24;;;;;;;21.00;18.40;;;;;;;18.16;100.00;95143.97;5157498;27;20175;-44
2023/09/18 05:03:51;;;;;;;22.17;18.43;;;;;;;18.29;100.00;95133.84;5157429;27;20254;-43
2023/09/18 05:06:18;;;;;;;21.70;18.30;;;;;;;18.45;100.00;95148.47;5157379;27;20672;-45
2023/09/18 05:08:47;;;;;;;23.20;18.23;;;;;;;18.63;100.00;95136.97;5157596;27;20199;-44
2023/09/18 05:11:13;;;;;;;21.10;17.27;;;;;;;18.84;100.00;95121.56;5157276;27;20594;-43
2023/09/18 05:13:40;;;;;;;20.90;17.17;;;;;;;19.11;99.00;95133.09;5157666;27;20235;-43
2023/09/18 05:16:07;;;;;;;27.30;18.03;;;;;;;19.36;97.75;95138.00;5156488;27;20541;-43
2023/09/18 05:18:34;;;;;;;22.33;16.83;;;;;;;19.60;96.20;95137.69;5157516;27;20187;-44
2023/09/18 05:21:01;;;;;;;21.63;17.45;;;;;;;19.87;94.51;95149.22;5157888;27;20191;-43
2023/09/18 05:23:28;;;;;;;18.70;15.85;;;;;;;20.13;93.34;95155.66;5162351;27;20219;-45
2023/09/18 05:25:56;;;;;;;20.70;16.17;;;;;;;20.38;91.83;95154.28;5150367;27;20212;-44
2023/09/18 05:28:23;;;;;;;20.85;15.05;;;;;;;20.58;89.67;95158.88;5160221;27;20201;-43
2023/09/18 05:30:51;;;;;;;21.63;17.08;;;;;;;20.73;87.42;95159.59;5160188;27;20203;-53
2023/09/18 05:33:18;;;;;;;21.60;15.85;;;;;;;20.78;87.64;95158.03;5165070;27;20203;-42
2023/09/18 05:35:45;;;;;;;21.58;15.82;;;;;;;20.99;87.34;95164.19;5159381;27;20194;-44
2023/09/18 05:38:14;;;;;;;24.08;16.52;;;;;;;21.20;86.53;95160.69;5155531;27;20196;-42
2023/09/18 05:40:41;;;;;;;21.23;15.52;;;;;;;21.40;85.40;95148.59;5152155;27;20728;-43
2023/09/18 05:43:09;;;;;;;18.00;15.90;;;;;;;21.70;82.35;95156.13;5152462;27;20588;-43
2023/09/18 05:45:36;;;;;;;19.42;15.38;;;;;;;21.77;82.47;95160.38;5153067;27;20180;-44
2023/09/18 05:48:04;;;;;;;20.60;15.70;;;;;;;21.83;81.69;95171.00;5153104;27;20184;-43
2023/09/18 05:50:32;;;;;;;16.77;14.38;;;;;;;21.96;81.42;95168.44;5152610;27;20227;-43
2023/09/18 05:53:00;;;;;;;18.00;14.85;;;;;;;22.09;80.26;95171.06;5152815;27;20219;-44
2023/09/18 05:55:27;;;;;;;21.95;15.10;;;;;;;22.06;80.01;95150.63;5152698;27;20224;-43
2023/09/18 05:57:54;;;;;;;23.35;16.35;;;;;;;22.23;79.74;95167.50;5151761;27;20183;-44
2023/09/18 06:00:23;;;;;;;18.40;15.32;;;;;;;22.28;79.69;95166.94;5152146;27;20184;-44
2023/09/18 06:02:51;;;;;;;21.13;15.77;;;;;;;22.28;78.95;95165.13;5151946;27;20827;-44
2023/09/18 06:05:21;;;;;;;20.13;15.32;;;;;;;22.26;78.87;95161.13;5152028;27;20196;-43
2023/09/18 06:07:48;;;;;;;17.65;15.85;;;;;;;22.11;78.72;95139.63;5152154;27;20302;-43
2023/09/18 06:10:15;;;;;;;18.83;15.18;;;;;;;22.19;78.43;95162.91;5152368;27;20579;-43
2023/09/18 06:12:42;;;;;;;18.50;15.68;;;;;;;22.12;78.90;95164.69;5151814;27;20187;-45
2023/09/18 06:15:11;;;;;;;18.55;15.75;;;;;;;21.88;79.13;95132.94;5152270;27;20324;-44
2023/09/18 06:17:40;;;;;;;20.10;15.30;;;;;;;22.12;79.11;95172.50;5151980;27;20195;-44
2023/09/18 06:20:09;;;;;;;19.95;16.27;;;;;;;22.14;78.75;95173.13;5151665;27;20206;-44
2023/09/18 06:22:37;;;;;;;18.20;16.02;;;;;;;22.13;78.73;95174.91;5152316;27;20203;-43
2023/09/18 06:25:05;;;;;;;21.20;16.25;;;;;;;22.19;79.01;95166.34;5151713;27;20215;-44
2023/09/18 06:27:32;;;;;;;16.83;15.02;;;;;;;22.15;78.25;95177.31;5151855;27;20298;-44
2023/09/18 06:29:59;;;;;;;19.15;16.33;;;;;;;22.03;78.79;95164.06;5151042;27;20206;-45
2023/09/18 06:32:26;;;;;;;17.70;14.98;;;;;;;22.14;78.73;95176.53;5151422;27;20239;-45
2023/09/18 06:34:54;;;;;;;22.02;16.63;;;;;;;22.20;78.54;95174.94;5151894;27;20191;-44
2023/09/18 06:37:21;;;;;;;16.42;14.77;;;;;;;22.23;78.79;95167.50;5151483;27;20195;-44
2023/09/18 06:39:48;;;;;;;22.55;15.55;;;;;;;22.26;78.57;95176.75;5146445;27;20295;-45
2023/09/18 06:42:15;;;;;;;23.60;18.20;;;;;;;22.33;78.34;95172.38;5151127;27;20180;-43
2023/09/18 06:44:42;;;;;;;19.45;17.13;;;;;;;22.00;78.46;95115.75;5149522;27;20176;-42
2023/09/18 06:47:08;;;;;;;21.67;15.88;;;;;;;22.59;77.58;95171.59;5149380;27;20187;-45
2023/09/18 06:49:35;;;;;;;19.15;15.55;;;;;;;22.75;76.74;95175.56;5150662;27;20227;-44
2023/09/18 06:52:04;;;;;;;19.17;15.07;;;;;;;23.07;75.40;95171.38;5151201;27;20184;-44
2023/09/18 06:54:31;;;;;;;19.80;15.25;;;;;;;23.40;74.87;95171.31;5150164;27;20280;-43
2023/09/18 06:56:58;;;;;;;20.33;17.10;;;;;;;23.52;73.76;95171.44;5151385;27;20184;-44
2023/09/18 06:59:25;;;;;;;19.13;15.45;;;;;;;23.74;73.23;95169.38;5150877;27;20184;-44
2023/09/18 07:01:57;;;;;;;17.30;14.95;;;;;;;23.74;72.35;95149.28;5150816;27;20209;-44
2023/09/18 07:04:25;;;;;;;22.05;14.48;;;;;;;24.06;71.38;95167.63;5151204;27;20239;-44
2023/09/18 07:06:53;;;;;;;17.08;14.30;;;;;;;24.33;70.70;95168.28;5151139;27;20184;-44
2023/09/18 07:09:22;;;;;;;17.30;15.10;;;;;;;24.53;69.63;95173.41;5151249;27;20569;-43
2023/09/18 07:11:50;;;;;;;15.20;13.63;;;;;;;24.58;69.24;95167.53;5147735;27;20857;-43
2023/09/18 07:14:17;;;;;;;16.20;14.20;;;;;;;24.57;68.57;95165.91;5151146;27;20252;-51
2023/09/18 07:16:44;;;;;;;16.35;14.65;;;;;;;24.53;68.60;95166.34;5155013;27;20203;-44
2023/09/18 07:19:11;;;;;;;23.45;13.80;;;;;;;24.37;68.35;95104.13;5154235;27;20199;-44
2023/09/18 07:21:40;;;;;;;15.15;13.27;;;;;;;25.18;66.93;95173.06;5151348;27;20282;-45
2023/09/18 07:24:07;;;;;;;13.88;11.93;;;;;;;25.28;66.89;95168.13;5150571;27;20219;-45
2023/09/18 07:26:35;;;;;;;14.77;13.05;;;;;;;25.31;66.50;95170.31;5150285;27;20220;-43
2023/09/18 07:29:03;;;;;;;14.70;12.00;;;;;;;25.29;65.06;95177.56;5150684;27;20287;-45
2023/09/18 07:31:29;;;;;;;14.10;12.60;;;;;;;25.24;65.11;95165.13;5150125;27;20187;-43
2023/09/18 07:33:56;;;;;;;16.58;12.15;;;;;;;25.21;65.60;95172.63;5150758;27;20703;-43
2023/09/18 07:36:23;;;;;;;15.48;13.88;;;;;;;25.30;64.27;95175.75;5150073;27;20195;-44
2023/09/18 07:38:50;;;;;;;13.05;11.63;;;;;;;25.36;64.27;95172.28;5150077;27;20660;-43
2023/09/18 07:41:16;;;;;;;15.88;11.80;;;;;;;25.61;64.50;95180.06;5150106;27;20176;-43
2023/09/18 07:43:45;;;;;;;13.13;11.73;;;;;;;25.93;64.24;95165.78;5150046;27;20208;-44
2023/09/18 07:46:11;;;;;;;14.63;11.98;;;;;;;26.11;63.09;95178.03;5150683;27;20187;-43
2023/09/18 07:48:38;;;;;;;12.15;10.77;;;;;;;26.25;62.77;95179.47;5149706;27;20639;-45
2023/09/18 07:51:05;;;;;;;15.90;12.80;;;;;;;26.45;61.10;95179.19;5150233;27;20275;-44
2023/09/18 07:53:32;;;;;;;15.18;11.95;;;;;;;26.51;60.19;95169.63;5149852;27;20191;-44
2023/09/18 07:56:01;;;;;;;15.85;12.82;;;;;;;26.47;60.39;95158.81;5150094;27;20283;-44
2023/09/18 07:58:28;;;;;;;14.57;11.98;;;;;;;26.56;60.84;95167.16;5149350;27;20421;-43
2023/09/18 08:00:57;;;;;;;13.90;10.35;;;;;;;26.63;59.68;95165.22;5149204;27;20257;-43
2023/09/18 08:03:24;;;;;;;15.00;11.85;;;;;;;26.76;59.42;95167.63;5149077;27;20768;-43
2023/09/18 08:05:52;;;;;;;14.85;12.32;;;;;;;26.59;59.13;95171.94;5149911;27;20191;-43
2023/09/18 08:08:21;;;;;;;14.68;12.27;;;;;;;26.51;60.13;95165.22;5150123;27;20218;-43
2023/09/18 08:10:48;;;;;;;12.40;11.10;;;;;;;26.51;59.30;95161.75;5149923;27;20685;-43
2023/09/18 08:13:15;;;;;;;13.55;10.98;;;;;;;26.68;59.52;95161.91;5149780;27;20195;-43
2023/09/18 08:15:43;;;;;;;13.48;12.07;;;;;;;26.79;58.51;95163.75;5149915;27;20188;-44
2023/09/18 08:18:12;;;;;;;14.35;11.90;;;;;;;26.92;58.95;95160.09;5149603;27;20275;-43
2023/09/18 08:20:42;;;;;;;14.07;11.00;;;;;;;27.06;57.95;95158.03;5149742;27;20275;-44
2023/09/18 08:23:09;;;;;;;13.50;11.95;;;;;;;27.11;58.05;95158.19;5150012;27;20219;-43
2023/09/18 08:25:36;;;;;;;14.55;12.38;;;;;;;27.21;57.61;95147.91;5149102;27;20215;-44
2023/09/18 08:28:04;;;;;;;17.17;12.32;;;;;;;27.14;57.39;95119.13;5150249;27;20223;-43
2023/09/18 08:30:31;;;;;;;15.85;12.30;;;;;;;27.50;57.32;95151.38;5149435;27;20295;-44
2023/09/18 08:32:58;;;;;;;17.27;11.82;;;;;;;27.54;56.61;95144.63;5149499;27;20194;-44
2023/09/18 08:35:29;;;;;;;13.32;11.93;;;;;;;27.67;56.46;95147.00;5149477;27;20187;-45
2023/09/18 08:37:56;;;;;;;11.75;10.55;;;;;;;27.71;56.13;95144.72;5149802;27;20287;-44
2023/09/18 08:40:25;;;;;;;13.15;11.80;;;;;;;27.58;55.93;95137.88;5149229;27;20624;-43
2023/09/18 08:42:55;;;;;;;15.93;12.60;;;;;;;27.63;55.89;95140.59;5149808;27;20191;-44
2023/09/18 08:45:26;;;;;;;14.02;11.82;;;;;;;27.68;56.64;95130.22;5149134;27;20274;-51
2023/09/18 08:47:55;;;;;;;13.43;11.57;;;;;;;27.78;55.68;95129.63;5147534;27;20176;-44
2023/09/18 08:50:26;;;;;;;16.27;11.85;;;;;;;27.82;54.70;95120.25;5148986;27;20217;-45
2023/09/18 08:52:54;;;;;;;13.70;11.98;;;;;;;27.74;55.27;95124.03;5149272;27;20194;-46
2023/09/18 08:55:22;;;;;;;13.35;11.95;;;;;;;27.72;55.42;95120.00;5149442;27;20244;-45
2023/09/18 08:57:50;;;;;;;15.50;11.38;;;;;;;27.80;55.48;95119.66;5149547;27;20195;-45
2023/09/18 09:00:17;;;;;;;12.43;10.73;;;;;;;27.69;55.09;95116.03;5149502;27;20186;-44
2023/09/18 09:02:45;;;;;;;12.95;11.73;;;;;;;27.58;55.00;95095.84;5149046;27;20196;-45
2023/09/18 09:05:12;;;;;;;16.52;11.48;;;;;;;27.67;54.90;95125.19;5148056;27;20187;-43
2023/09/18 09:07:40;;;;;;;12.98;10.80;;;;;;;27.60;55.20;95122.69;5148669;27;20184;-45
2023/09/18 09:10:07;;;;;;;13.43;10.73;;;;;;;27.58;55.01;95121.31;5150720;27;20176;-44
2023/09/18 09:13:02;;;;;;;13.23;11.77;;;;;;;27.59;55.33;95120.28;5153344;27;20560;-44
2023/09/18 09:15:33;;;;;;;14.98;12.20;;;;;;;27.39;55.29;95091.81;5068788;28;20202;-45
2023/09/18 09:18:07;;;;;;;12.15;10.95;;;;;;;27.47;55.06;95118.50;5068706;28;20663;-45
2023/09/18 09:20:35;;;;;;;12.57;11.10;;;;;;;27.44;55.73;95115.53;5068590;28;20806;-45
2023/09/18 09:23:04;;;;;;;13.48;11.90;;;;;;;27.26;54.41;95111.25;5068497;28;20187;-43
2023/09/18 09:25:33;;;;;;;12.27;10.07;;;;;;;27.17;55.24;95102.13;5067995;28;20594;-44
2023/09/18 09:28:04;;;;;;;10.88;9.85;;;;;;;27.12;54.91;95105.44;5069325;28;20569;-45
2023/09/18 09:30:32;;;;;;;15.25;10.82;;;;;;;26.83;54.60;95090.59;5052450;28;20205;-44
2023/09/18 09:33:02;;;;;;;12.18;10.32;;;;;;;26.94;55.16;95114.22;5068379;28;20190;-46
2023/09/18 09:35:31;;;;;;;10.43;8.60;;;;;;;26.95;55.00;95105.31;5051604;28;20244;-45
2023/09/18 09:38:00;;;;;;;11.20;9.63;;;;;;;26.91;54.52;95095.50;5066293;28;20198;-44
2023/09/18 09:40:30;;;;;;;11.00;9.88;;;;;;;26.85;53.88;95109.53;5067632;28;20191;-43
2023/09/18 09:43:01;;;;;;;13.68;9.55;;;;;;;26.66;55.30;95107.03;5051294;28;20201;-42
2023/09/18 09:45:30;;;;;;;11.70;9.02;;;;;;;26.52;55.74;95103.84;5067691;28;20194;-43
2023/09/18 09:47:58;;;;;;;9.45;8.45;;;;;;;26.51;55.19;95104.88;5068435;28;20208;-44
2023/09/18 09:50:26;;;;;;;11.05;9.65;;;;;;;26.45;55.08;95100.50;5080534;27;20211;-45
2023/09/18 09:52:55;;;;;;;9.68;8.48;;;;;;;26.48;54.48;95097.44;5152533;27;20623;-44
2023/09/18 09:55:25;;;;;;;8.55;7.65;;;;;;;26.38;54.10;95076.19;5151075;27;21955;-45
2023/09/18 09:57:57;;;;;;;8.88;7.97;;;;;;;26.48;54.23;95092.19;5153163;27;20230;-45
2023/09/18 10:00:30;;;;;;;9.00;8.10;;;;;;;26.35;54.05;95071.41;5152465;27;20615;-43
2023/09/18 10:02:59;;;;;;;9.63;7.95;;;;;;;26.39;54.47;95085.66;5152342;27;20253;-46
2023/09/18 10:05:29;;;;;;;8.75;7.88;;;;;;;26.33;53.99;95086.56;5152108;27;20292;-45
2023/09/18 10:07:59;;;;;;;8.13;7.30;;;;;;;26.30;53.77;95070.50;5152531;27;20186;-45
2023/09/18 10:10:32;;;;;;;14.40;9.02;;;;;;;26.37;55.36;95082.44;5152395;27;20180;-46
2023/09/18 10:13:04;;;;;;;12.05;9.65;;;;;;;26.39;55.57;95085.66;5149163;27;20656;-44
2023/09/18 10:15:38;;;;;;;11.98;8.98;;;;;;;26.36;54.78;95070.38;5151632;27;20183;-45
2023/09/18 10:18:08;;;;;;;12.75;9.13;;;;;;;26.27;55.41;95074.34;5152381;27;20218;-43
2023/09/18 10:20:42;;;;;;;9.07;7.47;;;;;;;26.19;54.50;95079.91;5151540;27;20195;-44
2023/09/18 10:23:23;;;;;;;9.68;7.85;;;;;;;26.01;54.65;95063.25;5149058;27;20213;-44
2023/09/18 10:25:55;;;;;;;13.30;8.55;;;;;;;26.08;55.35;95071.03;5150455;27;20640;-44
2023/09/18 10:28:26;;;;;;;9.75;8.75;;;;;;;26.06;55.27;95062.56;5151922;27;20199;-45
2023/09/18 10:30:53;;;;;;;9.35;8.35;;;;;;;26.11;54.80;95056.66;5151656;27;20287;-45
2023/09/18 10:33:20;;;;;;;8.70;7.72;;;;;;;26.16;54.98;95051.53;5151822;27;20195;-47
2023/09/18 10:35:48;;;;;;;10.82;8.38;;;;;;;26.20;54.98;95050.84;5151740;27;20191;-44
2023/09/18 10:38:17;;;;;;;11.13;8.00;;;;;;;26.19;54.70;95037.97;5152317;27;20256;-46
2023/09/18 10:40:45;;;;;;;10.55;8.07;;;;;;;26.23;53.99;95037.28;5151670;27;20192;-44
2023/09/18 10:43:12;;;;;;;13.00;8.20;;;;;;;26.35;54.60;95039.94;5152004;27;20195;-45
2023/09/18 10:45:41;;;;;;;9.68;7.35;;;;;;;26.47;54.19;95040.78;5151788;27;20799;-43
2023/09/18 10:48:09;;;;;;;8.73;7.82;;;;;;;26.50;53.39;95032.41;5153684;27;20192;-47
2023/09/18 10:50:39;;;;;;;8.40;7.55;;;;;;;26.59;53.70;95032.88;5151947;27;20199;-44
2023/09/18 10:53:06;;;;;;;8.85;7.68;;;;;;;26.55;53.60;95023.06;5151817;27;20278;-44
2023/09/18 10:55:33;;;;;;;9.57;7.43;;;;;;;26.58;53.32;95020.78;5151105;27;20199;-44
2023/09/18 10:58:02;;;;;;;8.15;6.75;;;;;;;26.63;52.78;95022.72;5152805;27;20196;-46
2023/09/18 11:00:30;;;;;;;8.50;6.65;;;;;;;26.49;52.57;94993.31;5152386;27;20191;-45
2023/09/18 11:03:13;;;;;;;7.68;6.20;;;;;;;26.61;51.99;95024.78;5151416;27;20187;-44
2023/09/18 11:05:40;;;;;;;11.20;5.93;;;;;;;26.48;52.51;95031.88;5150105;27;20226;-43
2023/09/18 11:08:27;;;;;;;8.48;6.85;;;;;;;26.43;53.24;95018.63;5151347;27;20235;-45
2023/09/18 11:11:04;;;;;;;7.60;6.35;;;;;;;26.57;51.86;95008.72;5150759;27;20236;-44
2023/09/18 11:13:40;;;;;;;7.03;6.40;;;;;;;26.28;52.78;95021.66;5150733;27;20191;-43
2023/09/18 11:16:37;;;;;;;6.80;6.10;;;;;;;26.18;53.49;95021.44;5149099;27;20232;-47
2023/09/18 11:19:10;;;;;;;8.07;6.20;;;;;;;26.09;53.59;95011.53;5147479;27;20234;-44
2023/09/18 11:21:38;;;;;;;6.95;6.13;;;;;;;26.04;52.99;95020.06;5150529;27;20664;-47